createdAt,value
2023-09-27T00:01:15.455Z,55253.84
2023-09-27T00:03:43.903Z,55253.84
2023-09-27T00:06:11.002Z,55253.84
2023-09-27T00:08:38.198Z,55253.84
2023-09-27T00:11:05.552Z,55253.84
2023-09-27T00:13:33.271Z,55253.84
2023-09-27T00:16:00.366Z,55253.84
2023-09-27T00:18:27.705Z,55253.84
2023-09-27T00:20:54.831Z,55253.84
2023-09-27T00:23:22.005Z,55253.84
2023-09-27T00:25:49.204Z,55253.84
2023-09-27T00:28:16.715Z,55253.84
2023-09-27T00:30:43.917Z,55253.84
2023-09-27T00:33:11.160Z,55253.84
2023-09-27T00:35:38.307Z,55253.84
2023-09-27T00:38:07.744Z,73750.31
2023-09-27T00:40:34.923Z,55253.84
2023-09-27T00:43:02.044Z,55253.84
2023-09-27T00:45:29.140Z,55253.84
2023-09-27T00:48:01.403Z,55253.84
2023-09-27T00:50:28.839Z,55253.84
2023-09-27T00:52:56.120Z,55253.84
2023-09-27T00:55:23.888Z,55253.84
2023-09-27T00:57:54.168Z,55253.84
2023-09-27T01:00:21.551Z,55253.84
2023-09-27T01:02:48.996Z,55253.84
2023-09-27T01:05:17.925Z,55253.84
2023-09-27T01:07:47.538Z,55253.84
2023-09-27T01:10:14.999Z,55253.84
2023-09-27T01:12:42.166Z,55253.84
2023-09-27T01:15:09.620Z,55253.84
2023-09-27T01:17:37.417Z,55253.84
2023-09-27T01:20:07.774Z,55253.84
2023-09-27T01:22:35.017Z,55253.84
2023-09-27T01:25:04.275Z,55253.84
2023-09-27T01:27:31.447Z,55253.84
2023-09-27T01:29:58.932Z,55253.84
2023-09-27T01:32:26.176Z,55253.84
2023-09-27T01:34:53.532Z,55253.84
2023-09-27T01:37:20.759Z,55253.84
2023-09-27T01:39:48.310Z,55253.84
2023-09-27T01:42:15.441Z,55253.84
2023-09-27T01:44:43.886Z,55253.84
2023-09-27T01:47:10.992Z,55253.84
2023-09-27T01:49:38.199Z,55253.84
2023-09-27T01:52:05.791Z,55253.84
2023-09-27T01:54:32.873Z,55253.84
2023-09-27T01:57:01.294Z,55253.84
2023-09-27T01:59:28.520Z,55253.84
2023-09-27T02:01:55.663Z,55253.84
2023-09-27T02:04:22.763Z,55253.84
2023-09-27T02:06:49.826Z,55253.84
2023-09-27T02:09:16.961Z,55253.84
2023-09-27T02:11:44.070Z,55253.84
2023-09-27T02:14:11.285Z,55253.84
2023-09-27T02:16:40.471Z,55253.84
2023-09-27T02:19:07.733Z,55253.84
2023-09-27T02:21:35.026Z,55253.84
2023-09-27T02:24:02.120Z,55253.84
2023-09-27T02:26:29.539Z,101542.06
2023-09-27T02:28:56.796Z,55253.84
2023-09-27T02:33:51.385Z,101542.06
2023-09-27T02:36:18.738Z,55253.84
2023-09-27T02:38:45.830Z,55253.84
2023-09-27T02:41:12.975Z,55253.84
2023-09-27T02:43:41.660Z,55253.84
2023-09-27T02:46:08.820Z,55253.84
2023-09-27T02:48:37.086Z,55253.84
2023-09-27T02:51:04.399Z,55253.84
2023-09-27T02:53:31.485Z,55253.84
2023-09-27T02:55:59.613Z,55253.84
2023-09-27T02:58:26.904Z,55253.84
2023-09-27T03:00:54.058Z,55253.84
2023-09-27T03:03:21.366Z,55253.84
2023-09-27T03:05:48.680Z,55253.84
2023-09-27T03:08:15.760Z,55253.84
2023-09-27T03:10:44.131Z,55253.84
2023-09-27T03:13:12.743Z,55253.84
2023-09-27T03:15:39.990Z,55253.84
2023-09-27T03:18:07.387Z,55253.84
2023-09-27T03:20:34.664Z,55253.84
2023-09-27T03:23:02.349Z,55253.84
2023-09-27T03:25:29.822Z,55253.84
2023-09-27T03:27:56.933Z,55253.84
2023-09-27T03:30:24.540Z,55253.84
2023-09-27T03:32:51.670Z,55253.84
2023-09-27T03:35:20.183Z,55253.84
2023-09-27T03:37:48.289Z,55253.84
2023-09-27T03:40:16.403Z,101542.06
2023-09-27T03:42:46.624Z,55253.84
2023-09-27T03:45:17.398Z,55253.84
2023-09-27T03:47:46.943Z,101542.06
2023-09-27T03:50:19.102Z,101542.06
2023-09-27T03:52:46.340Z,101542.06
2023-09-27T03:55:13.972Z,55253.84
2023-09-27T03:57:41.737Z,55253.84
2023-09-27T04:00:16.103Z,101542.06
2023-09-27T04:02:48.012Z,101542.06
2023-09-27T04:05:16.517Z,101493.69
2023-09-27T04:07:44.436Z,55253.84
2023-09-27T04:10:11.872Z,101500.88
2023-09-27T04:12:39.309Z,101498.31
2023-09-27T04:15:10.689Z,101498.31
2023-09-27T04:17:39.404Z,101480.97
2023-09-27T04:20:17.488Z,101482.56
2023-09-27T04:22:49.676Z,101504.44
2023-09-27T04:25:19.100Z,101498.56
2023-09-27T04:27:52.014Z,101507.53
2023-09-27T04:30:21.212Z,101492.75
2023-09-27T04:32:53.490Z,101507.13
2023-09-27T04:35:21.977Z,101513.41
2023-09-27T04:37:50.182Z,101516.28
2023-09-27T04:40:18.781Z,101509.59
2023-09-27T04:42:47.757Z,101518.56
2023-09-27T04:45:16.503Z,101502.41
2023-09-27T04:47:46.464Z,101506.25
2023-09-27T04:50:15.235Z,101498.75
2023-09-27T04:52:43.390Z,101493.72
2023-09-27T04:55:11.451Z,101493.75
2023-09-27T04:57:38.674Z,101492.19
2023-09-27T05:00:15.754Z,101515.25
2023-09-27T05:02:43.249Z,101511.06
2023-09-27T05:05:11.078Z,101511.25
2023-09-27T05:07:38.321Z,101502.75
2023-09-27T05:10:05.913Z,101516.91
2023-09-27T05:12:33.003Z,101498.75
2023-09-27T05:15:00.180Z,101500.84
2023-09-27T05:17:27.565Z,101511.47
2023-09-27T05:19:54.965Z,101508.19
2023-09-27T05:22:22.171Z,101506.59
2023-09-27T05:24:49.492Z,101512.00
2023-09-27T05:27:16.779Z,101484.97
2023-09-27T05:29:44.161Z,101490.53
2023-09-27T05:32:11.248Z,101504.84
2023-09-27T05:34:38.414Z,101506.69
2023-09-27T05:37:05.618Z,101512.06
2023-09-27T05:39:33.340Z,101515.88
2023-09-27T05:42:00.537Z,101501.13
2023-09-27T05:44:27.828Z,101470.38
2023-09-27T05:46:56.677Z,101510.47
2023-09-27T05:49:23.958Z,101506.28
2023-09-27T05:51:51.073Z,101506.44
2023-09-27T05:54:20.646Z,101500.50
2023-09-27T05:56:52.846Z,101504.25
2023-09-27T05:59:20.552Z,101504.50
2023-09-27T06:01:48.743Z,101501.19
2023-09-27T06:04:16.024Z,101497.78
2023-09-27T06:06:43.174Z,101496.25
2023-09-27T06:09:13.389Z,101500.97
2023-09-27T06:11:40.633Z,101474.69
2023-09-27T06:14:11.813Z,101510.31
2023-09-27T06:16:40.371Z,101513.81
2023-09-27T06:19:11.280Z,101519.66
2023-09-27T06:21:38.924Z,101514.88
2023-09-27T06:24:06.642Z,101514.00
2023-09-27T06:26:33.894Z,101514.22
2023-09-27T06:29:01.226Z,101513.38
2023-09-27T06:31:28.700Z,101507.22
2023-09-27T06:33:55.877Z,101510.69
2023-09-27T06:36:23.636Z,101504.59
2023-09-27T06:38:51.933Z,101508.13
2023-09-27T06:41:19.442Z,101501.09
2023-09-27T06:43:46.875Z,101481.75
2023-09-27T06:46:15.360Z,101463.25
2023-09-27T06:48:44.832Z,101494.91
2023-09-27T06:51:14.936Z,101462.38
2023-09-27T06:53:43.832Z,101506.38
2023-09-27T06:56:11.150Z,101514.22
2023-09-27T06:58:38.883Z,101507.78
2023-09-27T07:01:06.577Z,101506.19
2023-09-27T07:03:35.614Z,101501.88
2023-09-27T07:06:04.069Z,101496.53
2023-09-27T07:08:31.550Z,101501.94
2023-09-27T07:11:09.706Z,101505.91
2023-09-27T07:13:38.688Z,101511.63
2023-09-27T07:16:28.308Z,101489.50
2023-09-27T07:19:01.055Z,101497.63
2023-09-27T07:21:29.532Z,101500.34
2023-09-27T07:23:57.129Z,101498.66
2023-09-27T07:26:24.258Z,101483.25
2023-09-27T07:28:52.226Z,101518.88
2023-09-27T07:31:19.852Z,101520.09
2023-09-27T07:33:56.340Z,101524.94
2023-09-27T07:36:27.859Z,101525.19
2023-09-27T07:38:59.520Z,101527.19
2023-09-27T07:41:27.322Z,101532.53
2023-09-27T07:43:54.924Z,101521.16
2023-09-27T07:46:23.180Z,101530.00
2023-09-27T07:48:50.302Z,101537.09
2023-09-27T07:51:23.144Z,101519.53
2023-09-27T07:53:50.561Z,101525.69
2023-09-27T07:56:25.020Z,101527.47
2023-09-27T07:58:53.657Z,101525.69
2023-09-27T08:01:22.272Z,101511.63
2023-09-27T08:03:53.079Z,101525.69
2023-09-27T08:06:22.010Z,101523.94
2023-09-27T08:08:53.050Z,101520.44
2023-09-27T08:11:20.685Z,101507.22
2023-09-27T08:13:47.845Z,101508.94
2023-09-27T08:16:15.189Z,101514.19
2023-09-27T08:18:44.360Z,101395.44
2023-09-27T08:21:12.255Z,101514.00
2023-09-27T08:23:39.772Z,101516.56
2023-09-27T08:26:06.925Z,101516.56
2023-09-27T08:28:34.701Z,101502.53
2023-09-27T08:31:06.215Z,101516.66
2023-09-27T08:33:34.305Z,101506.06
2023-09-27T08:36:02.050Z,101499.91
2023-09-27T08:38:29.193Z,101460.34
2023-09-27T08:40:56.439Z,101510.53
2023-09-27T08:43:24.429Z,101511.44
2023-09-27T08:45:53.367Z,101495.63
2023-09-27T08:48:23.761Z,101501.81
2023-09-27T08:50:52.163Z,101495.63
2023-09-27T08:53:19.740Z,101492.97
2023-09-27T08:55:53.605Z,101469.22
2023-09-27T08:58:26.274Z,101492.06
2023-09-27T09:00:54.826Z,101494.75
2023-09-27T09:03:22.259Z,101491.25
2023-09-27T09:05:50.689Z,101486.00
2023-09-27T09:08:26.283Z,101494.78
2023-09-27T09:11:01.077Z,101486.00
2023-09-27T09:13:28.337Z,101491.28
2023-09-27T09:15:58.740Z,101492.16
2023-09-27T09:18:32.568Z,101491.22
2023-09-27T09:21:09.994Z,101487.69
2023-09-27T09:23:38.847Z,101429.72
2023-09-27T09:26:11.392Z,101493.06
2023-09-27T09:29:01.079Z,101483.34
2023-09-27T09:31:29.970Z,101476.31
2023-09-27T09:34:07.797Z,101482.47
2023-09-27T09:36:36.308Z,101482.50
2023-09-27T09:39:15.789Z,101477.19
2023-09-27T09:41:47.571Z,101483.38
2023-09-27T09:44:20.959Z,101468.41
2023-09-27T09:46:49.764Z,101478.91
2023-09-27T09:49:17.795Z,101481.47
2023-09-27T09:51:54.394Z,101472.66
2023-09-27T09:54:51.211Z,101465.53
2023-09-27T09:57:35.231Z,101456.03
2023-09-27T10:00:44.462Z,101461.31
2023-09-27T10:03:20.736Z,101451.66
2023-09-27T10:05:51.915Z,101439.28
2023-09-27T10:08:22.133Z,101418.25
2023-09-27T10:10:49.249Z,101458.69
2023-09-27T10:13:19.540Z,101459.59
2023-09-27T10:15:46.993Z,101460.47
2023-09-27T10:18:23.217Z,101463.09
2023-09-27T10:21:19.870Z,101456.88
2023-09-27T10:23:47.004Z,101444.66
2023-09-27T10:26:37.678Z,101450.84
2023-09-27T10:29:05.447Z,101457.00
2023-09-27T10:31:33.725Z,101455.25
2023-09-27T10:34:01.004Z,101442.94
2023-09-27T10:36:30.812Z,101450.84
2023-09-27T10:38:57.930Z,101438.53
2023-09-27T10:41:34.425Z,101435.84
2023-09-27T10:44:02.168Z,101441.03
2023-09-27T10:46:41.439Z,101446.28
2023-09-27T10:49:09.491Z,101437.63
2023-09-27T10:51:37.409Z,101437.66
2023-09-27T10:54:09.552Z,101432.31
2023-09-27T10:56:40.387Z,101431.41
2023-09-27T10:59:08.978Z,101426.13
2023-09-27T11:01:37.086Z,101427.03
2023-09-27T11:04:05.671Z,101418.22
2023-09-27T11:06:32.970Z,101415.63
2023-09-27T11:09:06.586Z,101420.84
2023-09-27T11:11:37.215Z,101414.72
2023-09-27T11:14:04.309Z,101399.72
2023-09-27T11:16:31.819Z,101404.09
2023-09-27T11:18:59.192Z,101413.78
2023-09-27T11:21:28.196Z,101409.38
2023-09-27T11:23:55.620Z,101406.69
2023-09-27T11:26:28.078Z,101398.69
2023-09-27T11:28:58.425Z,101407.41
2023-09-27T11:31:27.742Z,101399.41
2023-09-27T11:34:20.711Z,101401.03
2023-09-27T11:36:50.724Z,101405.41
2023-09-27T11:39:19.987Z,101395.72
2023-09-27T11:41:47.367Z,101401.00
2023-09-27T11:44:27.402Z,101403.66
2023-09-27T11:47:08.910Z,101395.78
2023-09-27T11:49:37.061Z,101393.25
2023-09-27T11:52:11.605Z,101399.41
2023-09-27T11:54:46.554Z,101402.09
2023-09-27T11:57:13.803Z,101392.38
2023-09-27T11:59:41.046Z,101390.66
2023-09-27T12:02:16.816Z,101384.50
2023-09-27T12:04:52.398Z,101390.63
2023-09-27T12:07:19.826Z,101381.78
2023-09-27T12:09:47.124Z,101385.28
2023-09-27T12:12:14.213Z,101380.00
2023-09-27T12:14:42.042Z,101366.84
2023-09-27T12:17:09.156Z,101333.50
2023-09-27T12:19:36.626Z,101339.69
2023-09-27T12:22:04.665Z,101374.91
2023-09-27T12:24:32.351Z,101378.44
2023-09-27T12:26:59.486Z,101379.31
2023-09-27T12:29:26.678Z,101340.72
2023-09-27T12:31:54.047Z,101364.44
2023-09-27T12:34:21.147Z,101365.34
2023-09-27T12:36:48.887Z,101377.63
2023-09-27T12:39:20.589Z,101373.25
2023-09-27T12:41:48.445Z,101351.25
2023-09-27T12:44:22.213Z,101373.25
2023-09-27T12:46:50.241Z,101362.72
2023-09-27T12:49:17.476Z,101358.28
2023-09-27T12:51:49.397Z,101364.50
2023-09-27T12:54:17.399Z,101340.78
2023-09-27T12:56:44.770Z,101354.88
2023-09-27T12:59:12.390Z,101257.38
2023-09-27T13:01:41.089Z,101358.38
2023-09-27T13:04:08.785Z,101364.59
2023-09-27T13:06:36.251Z,101335.56
2023-09-27T13:09:03.988Z,101348.75
2023-09-27T13:11:31.243Z,101343.50
2023-09-27T13:13:58.421Z,101342.63
2023-09-27T13:16:25.563Z,101344.41
2023-09-27T13:18:54.757Z,101339.16
2023-09-27T13:21:22.312Z,101338.28
2023-09-27T13:23:49.477Z,101334.75
2023-09-27T13:26:16.789Z,101347.94
2023-09-27T13:28:44.000Z,101338.28
2023-09-27T13:31:11.211Z,101336.53
2023-09-27T13:33:38.405Z,101330.34
2023-09-27T13:36:05.726Z,101337.41
2023-09-27T13:38:33.289Z,101336.53
2023-09-27T13:41:01.402Z,101331.28
2023-09-27T13:43:29.861Z,101328.66
2023-09-27T13:45:57.133Z,101333.03
2023-09-27T13:48:24.343Z,101332.16
2023-09-27T13:50:51.554Z,101332.19
2023-09-27T13:53:18.905Z,101333.06
2023-09-27T13:55:46.314Z,101321.66
2023-09-27T13:58:14.331Z,101326.94
2023-09-27T14:00:43.599Z,101325.16
2023-09-27T14:03:10.954Z,101320.78
2023-09-27T14:05:38.277Z,101313.78
2023-09-27T14:08:05.599Z,101326.06
2023-09-27T14:10:32.729Z,101270.69
2023-09-27T14:13:01.041Z,101306.72
2023-09-27T14:15:28.443Z,101311.09
2023-09-27T14:17:55.665Z,101319.91
2023-09-27T14:20:22.972Z,101324.28
2023-09-27T14:22:50.171Z,101321.66
2023-09-27T14:25:17.508Z,101315.50
2023-09-27T14:27:46.194Z,101312.88
2023-09-27T14:30:13.657Z,101317.28
2023-09-27T14:32:43.369Z,101313.75
2023-09-27T14:35:12.820Z,101319.91
2023-09-27T14:37:41.001Z,101314.63
2023-09-27T14:40:12.448Z,101308.50
2023-09-27T14:42:43.172Z,101318.16
2023-09-27T14:45:20.188Z,101302.34
2023-09-27T14:47:55.995Z,101310.25
2023-09-27T14:50:23.392Z,101307.59
2023-09-27T14:52:50.572Z,101288.28
2023-09-27T14:55:19.230Z,101305.84
2023-09-27T14:57:47.092Z,101306.75
2023-09-27T15:00:14.490Z,101304.97
2023-09-27T15:02:44.416Z,101316.38
2023-09-27T15:05:12.529Z,101316.38
2023-09-27T15:07:39.936Z,101308.41
2023-09-27T15:10:08.006Z,101313.66
2023-09-27T15:12:35.271Z,101309.25
2023-09-27T15:15:03.362Z,101316.25
2023-09-27T15:17:42.818Z,101300.41
2023-09-27T15:20:12.556Z,55253.84
2023-09-27T15:22:40.384Z,101296.88
2023-09-27T15:25:08.717Z,101320.59
2023-09-27T15:27:35.930Z,101320.59
2023-09-27T15:30:03.405Z,101323.19
2023-09-27T15:32:33.092Z,101309.09
2023-09-27T15:35:00.271Z,101317.88
2023-09-27T15:37:27.646Z,101322.25
2023-09-27T15:39:54.845Z,101319.59
2023-09-27T15:42:22.233Z,101319.59
2023-09-27T15:44:51.116Z,101301.06
2023-09-27T15:47:18.350Z,101316.88
2023-09-27T15:49:45.503Z,101308.88
2023-09-27T15:52:13.188Z,101318.53
2023-09-27T15:54:43.033Z,55253.84
2023-09-27T15:57:10.357Z,55253.84
2023-09-27T15:59:37.473Z,55253.84
2023-09-27T16:02:04.653Z,55253.84
2023-09-27T16:04:42.287Z,55253.84
2023-09-27T16:07:18.455Z,55253.84
2023-09-27T16:09:45.766Z,55253.84
2023-09-27T16:12:12.938Z,55253.84
2023-09-27T16:14:40.183Z,55253.84
2023-09-27T16:17:07.259Z,55253.84
2023-09-27T16:19:34.311Z,55253.84
2023-09-27T16:22:01.385Z,55253.84
2023-09-27T16:24:28.621Z,101318.53
2023-09-27T16:26:57.185Z,55253.84
2023-09-27T16:29:24.269Z,55253.84
2023-09-27T16:31:51.948Z,55253.84
2023-09-27T16:34:19.229Z,55253.84
2023-09-27T16:36:46.387Z,55253.84
2023-09-27T16:39:13.620Z,55253.84
2023-09-27T16:41:41.031Z,55253.84
2023-09-27T16:44:08.920Z,55253.84
2023-09-27T16:46:36.165Z,55253.84
2023-09-27T16:49:03.620Z,55253.84
2023-09-27T16:51:30.894Z,55253.84
2023-09-27T16:53:57.943Z,55253.84
2023-09-27T16:56:25.087Z,55253.84
2023-09-27T16:58:52.228Z,55253.84
2023-09-27T17:01:21.889Z,55253.84
2023-09-27T17:03:49.721Z,101318.34
2023-09-27T17:06:20.487Z,55253.84
2023-09-27T17:08:50.221Z,55253.84
2023-09-27T17:11:26.591Z,55253.84
2023-09-27T17:13:54.369Z,55253.84
2023-09-27T17:16:27.715Z,55253.84
2023-09-27T17:18:55.318Z,55253.84
2023-09-27T17:21:23.363Z,55253.84
2023-09-27T17:23:51.340Z,55253.84
2023-09-27T17:26:18.789Z,55253.84
2023-09-27T17:28:46.340Z,55253.84
2023-09-27T17:31:13.600Z,55253.84
2023-09-27T17:33:42.749Z,55253.84
2023-09-27T17:36:10.315Z,55253.84
2023-09-27T17:38:37.399Z,55253.84
2023-09-27T17:41:04.514Z,55253.84
2023-09-27T17:43:35.221Z,55253.84
2023-09-27T17:46:02.525Z,55253.84
2023-09-27T17:48:29.636Z,55253.84
2023-09-27T17:50:56.780Z,55253.84
2023-09-27T17:53:23.878Z,55253.84
2023-09-27T17:55:51.034Z,55253.84
2023-09-27T17:58:18.362Z,55253.84
2023-09-27T18:00:45.426Z,55253.84
2023-09-27T18:03:12.616Z,55253.84
2023-09-27T18:05:39.895Z,55253.84
2023-09-27T18:08:07.276Z,55253.84
2023-09-27T18:10:34.398Z,55253.84
2023-09-27T18:13:01.507Z,55253.84
2023-09-27T18:15:28.970Z,55253.84
2023-09-27T18:17:56.684Z,55253.84
2023-09-27T18:20:23.844Z,55253.84
2023-09-27T18:22:51.129Z,55253.84
2023-09-27T18:25:18.359Z,55253.84
2023-09-27T18:27:46.191Z,55253.84
2023-09-27T18:30:13.627Z,55253.84
2023-09-27T18:32:40.766Z,55253.84
2023-09-27T18:35:08.533Z,55253.84
2023-09-27T18:37:35.721Z,55253.84
2023-09-27T18:40:02.873Z,55253.84
2023-09-27T18:42:31.204Z,55253.84
2023-09-27T18:44:58.418Z,55253.84
2023-09-27T18:47:25.623Z,55253.84
2023-09-27T18:49:52.900Z,55253.84
2023-09-27T18:52:20.026Z,55253.84
2023-09-27T18:54:49.039Z,55253.84
2023-09-27T18:57:16.121Z,55253.84
2023-09-27T18:59:43.233Z,55253.84
2023-09-27T19:02:10.425Z,55253.84
2023-09-27T19:04:37.654Z,55253.84
2023-09-27T19:07:04.925Z,55253.84
2023-09-27T19:09:32.011Z,55253.84
2023-09-27T19:11:59.096Z,55253.84
2023-09-27T19:14:26.220Z,55253.84
2023-09-27T19:16:53.344Z,55253.84
2023-09-27T19:19:20.568Z,55253.84
2023-09-27T19:21:47.759Z,55253.84
2023-09-27T19:24:14.858Z,55253.84
2023-09-27T19:26:42.610Z,55253.84
2023-09-27T19:29:09.742Z,55253.84
2023-09-27T19:31:37.041Z,55253.84
2023-09-27T19:34:04.638Z,55253.84
2023-09-27T19:36:31.803Z,55253.84
2023-09-27T19:38:58.840Z,55253.84
2023-09-27T19:41:32.336Z,55253.84
2023-09-27T19:43:59.505Z,55253.84
2023-09-27T19:46:26.801Z,55253.84
2023-09-27T19:48:55.300Z,55253.84
2023-09-27T19:51:23.817Z,55253.84
2023-09-27T19:53:55.136Z,55253.84
2023-09-27T19:56:22.912Z,55253.84
2023-09-27T19:58:50.436Z,55253.84
2023-09-27T20:01:35.700Z,55253.84
2023-09-27T20:04:03.071Z,55253.84
2023-09-27T20:06:36.651Z,55253.84
2023-09-27T20:09:04.898Z,55253.84
2023-09-27T20:11:32.418Z,55253.84
2023-09-27T20:14:00.126Z,55253.84
2023-09-27T20:16:27.280Z,55253.84
2023-09-27T20:18:54.386Z,55253.84
2023-09-27T20:21:22.339Z,55253.84
2023-09-27T20:23:50.506Z,55253.84
2023-09-27T20:26:17.750Z,55253.84
2023-09-27T20:28:45.099Z,55253.84
2023-09-27T20:31:12.241Z,55253.84
2023-09-27T20:33:39.350Z,55253.84
2023-09-27T20:36:07.467Z,55253.84
2023-09-27T20:38:35.374Z,55253.84
2023-09-27T20:41:02.468Z,55253.84
2023-09-27T20:43:29.583Z,55253.84
2023-09-27T20:45:56.705Z,55253.84
2023-09-27T20:48:23.779Z,55253.84
2023-09-27T20:50:50.899Z,55253.84
2023-09-27T20:53:18.050Z,55253.84
2023-09-27T20:55:45.135Z,55253.84
2023-09-27T20:58:12.446Z,55253.84
2023-09-27T21:00:39.530Z,55253.84
2023-09-27T21:03:06.868Z,55253.84
2023-09-27T21:05:34.325Z,55253.84
2023-09-27T21:08:01.681Z,55253.84
2023-09-27T21:10:28.751Z,55253.84
2023-09-27T21:12:56.065Z,55253.84
2023-09-27T21:15:23.341Z,55253.84
2023-09-27T21:17:50.568Z,55253.84
2023-09-27T21:20:17.881Z,55253.84
2023-09-27T21:22:45.255Z,55253.84
2023-09-27T21:25:12.361Z,55253.84
2023-09-27T21:27:40.141Z,55253.84
2023-09-27T21:30:08.971Z,55253.84
2023-09-27T21:32:36.543Z,55253.84
2023-09-27T21:35:04.653Z,55253.84
2023-09-27T21:37:32.242Z,55253.84
2023-09-27T21:40:01.399Z,55253.84
2023-09-27T21:42:31.132Z,55253.84
2023-09-27T21:44:58.249Z,55253.84
2023-09-27T21:47:25.561Z,55253.84
2023-09-27T21:49:52.647Z,55253.84
2023-09-27T21:52:19.771Z,55253.84
2023-09-27T21:54:46.871Z,55253.84
2023-09-27T21:57:16.050Z,55253.84
2023-09-27T21:59:43.844Z,55253.84
2023-09-27T22:02:12.739Z,55253.84
2023-09-27T22:04:39.965Z,55253.84
2023-09-27T22:07:07.195Z,55253.84
2023-09-27T22:09:35.521Z,55253.84
2023-09-27T22:12:02.679Z,55253.84
2023-09-27T22:14:29.761Z,55253.84
2023-09-27T22:17:03.846Z,55253.84
2023-09-27T22:19:31.027Z,55253.84
2023-09-27T22:21:59.704Z,55253.84
2023-09-27T22:24:27.093Z,55253.84
2023-09-27T22:26:55.147Z,55253.84
2023-09-27T22:29:22.289Z,55253.84
2023-09-27T22:31:49.435Z,55253.84
2023-09-27T22:34:25.468Z,55253.84
2023-09-27T22:36:53.946Z,55253.84
2023-09-27T22:39:23.032Z,55253.84
2023-09-27T22:41:53.484Z,73997.25
2023-09-27T22:44:22.450Z,101318.53
2023-09-27T22:46:54.361Z,55253.84
2023-09-27T22:49:23.595Z,55253.84
2023-09-27T22:51:51.424Z,55253.84
2023-09-27T22:54:20.741Z,55253.84
2023-09-27T22:56:50.020Z,55253.84
2023-09-27T22:59:18.349Z,55253.84
2023-09-27T23:01:47.750Z,55253.84
2023-09-27T23:04:18.457Z,55253.84
2023-09-27T23:06:46.658Z,55253.84
2023-09-27T23:09:26.115Z,55253.84
2023-09-27T23:12:12.948Z,55253.84
2023-09-27T23:14:58.804Z,55253.84
2023-09-27T23:17:30.944Z,55253.84
2023-09-27T23:19:58.104Z,101318.53
2023-09-27T23:22:27.798Z,55253.84
2023-09-27T23:25:13.702Z,55253.84
2023-09-27T23:27:40.789Z,55253.84
2023-09-27T23:30:14.141Z,55253.84
2023-09-27T23:32:41.504Z,55253.84
2023-09-27T23:35:11.017Z,55253.84
2023-09-27T23:37:38.287Z,55253.84
2023-09-27T23:40:14.867Z,55253.84
2023-09-27T23:42:48.341Z,101318.53
2023-09-27T23:45:15.778Z,101318.53
2023-09-27T23:47:51.427Z,55253.84
2023-09-27T23:50:19.322Z,101318.53
2023-09-27T23:52:48.806Z,55253.84
2023-09-27T23:55:18.254Z,55253.84
2023-09-27T23:57:49.415Z,101318.53
